Main page
METAR-TAF:

METAR-TAF

Airports :

Charles de Gaulle Airport

Paris-Charles De Gaulle, France

latitude: 49-01N, longitude: 002-32E, elevation: 118 m

Current weather observation

The report was made 32 minutes ago, at 06:00 UTC
Wind 1 kt from the North
Temperature 13°C
Humidity 88%
Pressure 1019 hPa
Visibility: 9000 m

METAR: LFPG 170600Z 35001KT 9000 NSC 13/11 Q1019 TEMPO 3000 BR

Time: 08:32 (06:32 UTC)

Forecast

The report was made 1 hour and 32 minutes ago, at 05:00 UTC
Forecast valid from 17 at 06 UTC to 18 at 12 UTC
Wind 5 kt from the North
Visibility 10 km or more
no clouds below 1500 m and no cumulonimbus
Temporary
from 17 at 06 UTC to 17 at 08 UTC
Visibility: 3000 m
mist
Probability 30% :
Temporary
from 17 at 06 UTC to 17 at 08 UTC
Visibility: 0600 m
fog
Becoming
from 17 at 14 UTC to 17 at 16 UTC
Wind 10 kt from the North

TAF: LFPG 170500Z 1706/1812 36005KT CAVOK TX22/1715Z TN12/1806Z TEMPO 1706/1708 3000 BR PROB30 TEMPO 1706/1708 0600 FG VV/// BECMG 1714/1716 01010KT

Weather observations and forecasts of more than 4000 airports (METAR and TAF reports).

The available stations are represented by yellow and red dots on the map.

Hover mouse over dot to see the name of the station.

Then click to see weather observations and forecasts.

To change the map : click on the green buttons with a black cross to zoom in, on the green button with a dash to zoom out, or on the green arrows for adjacent maps.


METAR-TAF: